Station History

Weather Underground - logo

Station Historical Data
Daily Summary for December 10, 2017 Units:  English    Metric   Both
« Previous Day
Next Day »
Daily Weekly Monthly Yearly Custom
  High: Low: Average:
Temperature: 64.0 °F 33.1 °F 45.9 °F
Dew Point: 41.6 °F 30.5 °F 36.7 °F
Humidity: 92 % 41 % 73 %
Wind Speed: 4.6 mph 0.0 mph 0.3 mph
Wind Gust: 4.6 mph - -
Wind:- - WNW
Pressure: 30.36 in 30.23 in -
Precipitation: 0.00 in    
Historical Graphs
 
 
Tabular Data for December 10, 2017
Time Temperature Dew Point Pressure Wind Wind Speed Wind Gust Humidity Rainfall Rate (Hourly)
00:03 40.0 °F 35.6 °F 30.34 in Calm     84 % 0.00 in
00:08 39.9 °F 35.5 °F 30.34 in Calm     84 % 0.00 in
00:13 40.2 °F 35.8 °F 30.34 in Calm     84 % 0.00 in
00:18 40.3 °F 35.5 °F 30.33 in WNW 1.2 mph   83 % 0.00 in
00:23 40.4 °F 35.3 °F 30.33 in NW 1.2 mph 1.2 mph 82 % 0.00 in
00:28 40.4 °F 35.3 °F 30.33 in Calm     82 % 0.00 in
00:33 40.3 °F 35.2 °F 30.33 in NW 1.2 mph 1.2 mph 82 % 0.00 in
00:38 40.1 °F 35.0 °F 30.33 in Calm     82 % 0.00 in
00:43 40.0 °F 34.9 °F 30.32 in Calm     82 % 0.00 in
00:48 39.8 °F 34.8 °F 30.33 in Calm     82 % 0.00 in
00:53 39.7 °F 34.7 °F 30.32 in Calm     82 % 0.00 in
00:58 39.5 °F 34.5 °F 30.32 in Calm     82 % 0.00 in
01:03 39.2 °F 34.5 °F 30.32 in Calm     83 % 0.00 in
01:08 39.2 °F 34.8 °F 30.32 in Calm     84 % 0.00 in
01:13 39.6 °F 35.2 °F 30.32 in NNW 1.2 mph 1.2 mph 84 % 0.00 in
01:18 40.1 °F 35.4 °F 30.32 in Calm   0.2 mph 83 % 0.00 in
01:23 40.5 °F 35.4 °F 30.32 in NNW 1.0 mph 1.0 mph 82 % 0.00 in
01:28 40.7 °F 35.3 °F 30.32 in NNW 1.2 mph   81 % 0.00 in
01:33 40.7 °F 35.3 °F 30.32 in Calm     81 % 0.00 in
01:38 40.6 °F 35.2 °F 30.32 in Calm     81 % 0.00 in
01:43 40.0 °F 34.6 °F 30.32 in Calm     81 % 0.00 in
01:48 39.0 °F 34.0 °F 30.32 in Calm     82 % 0.00 in
01:53 38.5 °F 33.8 °F 30.32 in NNW 1.2 mph   83 % 0.00 in
01:59 37.9 °F 33.5 °F 30.32 in Calm     84 % 0.00 in
02:04 37.3 °F 32.9 °F 30.32 in Calm     84 % 0.00 in
02:09 36.7 °F 32.6 °F 30.32 in Calm     85 % 0.00 in
02:14 36.5 °F 32.7 °F 30.32 in Calm     86 % 0.00 in
02:19 36.2 °F 32.7 °F 30.32 in NNW 1.0 mph   87 % 0.00 in
02:29 35.6 °F 32.1 °F 30.32 in NNW 1.2 mph 1.2 mph 87 % 0.00 in
02:34 35.3 °F 31.8 °F 30.32 in Calm     87 % 0.00 in
02:44 34.7 °F 31.5 °F 30.32 in Calm     88 % 0.00 in
02:54 34.1 °F 30.9 °F 30.33 in Calm     88 % 0.00 in
02:59 33.9 °F 31.0 °F 30.32 in Calm     89 % 0.00 in
03:04 33.9 °F 31.0 °F 30.32 in Calm     89 % 0.00 in
03:09 34.0 °F 31.4 °F 30.33 in Calm     90 % 0.00 in
03:14 34.2 °F 31.8 °F 30.32 in Calm     91 % 0.00 in
03:19 34.2 °F 31.6 °F 30.33 in Calm     90 % 0.00 in
03:24 34.0 °F 31.4 °F 30.33 in Calm     90 % 0.00 in
03:29 33.9 °F 31.3 °F 30.33 in Calm     90 % 0.00 in
03:34 33.9 °F 31.3 °F 30.33 in Calm     90 % 0.00 in
03:39 34.1 °F 31.5 °F 30.33 in Calm     90 % 0.00 in
03:44 34.1 °F 31.2 °F 30.33 in Calm     89 % 0.00 in
03:49 34.3 °F 31.7 °F 30.33 in Calm     90 % 0.00 in
03:54 34.4 °F 31.5 °F 30.33 in Calm     89 % 0.00 in
03:59 34.3 °F 31.4 °F 30.33 in Calm     89 % 0.00 in
04:04 34.1 °F 31.2 °F 30.33 in Calm     89 % 0.00 in
04:09 33.8 °F 30.9 °F 30.33 in Calm     89 % 0.00 in
04:14 33.7 °F 30.8 °F 30.33 in Calm     89 % 0.00 in
04:19 33.6 °F 31.0 °F 30.33 in Calm     90 % 0.00 in
04:24 33.5 °F 30.6 °F 30.33 in Calm     89 % 0.00 in
04:29 33.3 °F 30.7 °F 30.33 in NNW 1.2 mph   90 % 0.00 in
04:34 33.3 °F 30.7 °F 30.33 in Calm     90 % 0.00 in
04:39 33.1 °F 30.5 °F 30.33 in Calm     90 % 0.00 in
04:44 33.1 °F 30.5 °F 30.33 in Calm     90 % 0.00 in
04:49 33.1 °F 30.5 °F 30.33 in Calm     90 % 0.00 in
04:54 33.1 °F 30.8 °F 30.33 in Calm     91 % 0.00 in
04:59 33.2 °F 30.9 °F 30.33 in Calm     91 % 0.00 in
05:04 33.3 °F 31.0 °F 30.34 in Calm     91 % 0.00 in
05:09 33.2 °F 30.6 °F 30.33 in Calm     90 % 0.00 in
05:14 33.3 °F 31.0 °F 30.34 in Calm     91 % 0.00 in
05:19 33.3 °F 31.0 °F 30.34 in Calm     91 % 0.00 in
05:29 33.6 °F 31.5 °F 30.34 in Calm     92 % 0.00 in
05:34 33.8 °F 31.5 °F 30.34 in Calm     91 % 0.00 in
05:39 34.1 °F 31.7 °F 30.34 in Calm     91 % 0.00 in
05:44 34.4 °F 32.0 °F 30.34 in Calm     91 % 0.00 in
05:49 34.5 °F 32.1 °F 30.34 in Calm     91 % 0.00 in
05:54 34.8 °F 32.4 °F 30.34 in Calm     91 % 0.00 in
05:59 34.8 °F 32.2 °F 30.34 in Calm     90 % 0.00 in
06:04 34.9 °F 32.3 °F 30.34 in Calm     90 % 0.00 in
06:10 35.1 °F 32.5 °F 30.34 in Calm     90 % 0.00 in
06:15 35.1 °F 32.5 °F 30.34 in Calm     90 % 0.00 in
06:20 35.0 °F 32.4 °F 30.34 in Calm     90 % 0.00 in
06:25 34.9 °F 32.3 °F 30.34 in Calm     90 % 0.00 in
06:30 34.8 °F 32.2 °F 30.34 in Calm     90 % 0.00 in
06:35 34.5 °F 31.9 °F 30.34 in Calm     90 % 0.00 in
06:40 34.3 °F 31.7 °F 30.35 in Calm     90 % 0.00 in
06:45 34.0 °F 31.4 °F 30.35 in Calm     90 % 0.00 in
06:50 33.8 °F 31.2 °F 30.34 in Calm     90 % 0.00 in
06:55 33.6 °F 31.0 °F 30.34 in Calm     90 % 0.00 in
07:00 33.5 °F 30.9 °F 30.34 in Calm     90 % 0.00 in
07:05 33.5 °F 30.9 °F 30.34 in Calm     90 % 0.00 in
07:10 33.5 °F 31.2 °F 30.34 in Calm     91 % 0.00 in
07:15 33.5 °F 30.9 °F 30.34 in Calm     90 % 0.00 in
07:20 33.4 °F 30.8 °F 30.34 in Calm     90 % 0.00 in
07:25 33.3 °F 30.7 °F 30.34 in Calm     90 % 0.00 in
07:30 33.4 °F 30.8 °F 30.34 in Calm     90 % 0.00 in
07:35 33.5 °F 30.9 °F 30.35 in Calm     90 % 0.00 in
07:40 33.7 °F 31.1 °F 30.34 in Calm     90 % 0.00 in
07:45 34.0 °F 31.4 °F 30.35 in Calm     90 % 0.00 in
07:50 34.3 °F 31.7 °F 30.35 in Calm     90 % 0.00 in
07:55 35.0 °F 32.6 °F 30.35 in Calm     91 % 0.00 in
08:00 35.7 °F 33.1 °F 30.35 in Calm     90 % 0.00 in
08:05 36.7 °F 34.0 °F 30.35 in Calm     90 % 0.00 in
08:10 37.5 °F 34.6 °F 30.35 in Calm     89 % 0.00 in
08:15 38.9 °F 35.6 °F 30.35 in Calm     88 % 0.00 in
08:20 39.8 °F 35.7 °F 30.35 in Calm     85 % 0.00 in
08:25 40.7 °F 36.8 °F 30.36 in Calm     86 % 0.00 in
08:30 42.7 °F 37.9 °F 30.36 in Calm     83 % 0.00 in
08:35 44.0 °F 37.6 °F 30.35 in Calm     78 % 0.00 in
08:40 44.6 °F 38.2 °F 30.36 in Calm     78 % 0.00 in
08:45 46.4 °F 38.9 °F 30.36 in Calm     75 % 0.00 in
08:50 47.5 °F 38.9 °F 30.36 in Calm     72 % 0.00 in
09:00 47.7 °F 39.5 °F 30.36 in NNE 1.2 mph   73 % 0.00 in
09:10 49.4 °F 39.7 °F 30.36 in Calm     69 % 0.00 in
09:31 51.5 °F 39.7 °F 30.36 in Calm     64 % 0.00 in
09:36 52.0 °F 40.2 °F 30.36 in SE 1.2 mph   64 % 0.00 in
09:41 52.0 °F 40.2 °F 30.36 in Calm     64 % 0.00 in
09:56 53.7 °F 40.6 °F 30.35 in Calm     61 % 0.00 in
10:01 53.3 °F 39.8 °F 30.35 in Calm     60 % 0.00 in
10:06 52.9 °F 39.8 °F 30.35 in Calm     61 % 0.00 in
10:11 53.0 °F 39.9 °F 30.35 in Calm     61 % 0.00 in
10:16 53.2 °F 39.7 °F 30.35 in Calm     60 % 0.00 in
10:21 53.7 °F 41.0 °F 30.34 in Calm     62 % 0.00 in
10:26 54.4 °F 39.9 °F 30.34 in Calm     58 % 0.00 in
10:31 55.2 °F 41.1 °F 30.34 in Calm     59 % 0.00 in
10:46 55.6 °F 40.1 °F 30.33 in Calm     56 % 0.00 in
10:56 56.2 °F 40.2 °F 30.33 in Calm     55 % 0.00 in
11:01 56.8 °F 40.8 °F 30.33 in Calm     55 % 0.00 in
11:06 57.3 °F 40.8 °F 30.32 in West 1.2 mph 1.2 mph 54 % 0.00 in
11:16 57.7 °F 40.7 °F 30.32 in Calm     53 % 0.00 in
11:21 57.8 °F 39.8 °F 30.32 in WNW 1.2 mph 1.2 mph 51 % 0.00 in
11:31 58.3 °F 41.2 °F 30.31 in ENE 1.2 mph 1.2 mph 53 % 0.00 in
11:41 59.1 °F 41.0 °F 30.30 in West 1.2 mph 1.2 mph 51 % 0.00 in
11:46 59.2 °F 40.0 °F 30.30 in North 1.0 mph 1.0 mph 49 % 0.00 in
11:51 59.6 °F 40.9 °F 30.30 in NW 1.2 mph 1.2 mph 50 % 0.00 in
11:56 59.8 °F 41.6 °F 30.29 in WNW 2.3 mph   51 % 0.00 in
12:06 60.4 °F 41.1 °F 30.29 in NW 3.5 mph 3.5 mph 49 % 0.00 in
12:11 60.6 °F 40.8 °F 30.28 in NNW 3.5 mph 3.5 mph 48 % 0.00 in
12:16 60.7 °F 40.3 °F 30.28 in NW 1.2 mph 1.2 mph 47 % 0.00 in
12:21 60.8 °F 40.4 °F 30.28 in NW 2.3 mph 2.3 mph 47 % 0.00 in
12:26 61.1 °F 40.7 °F 30.28 in WNW 2.0 mph 2.0 mph 47 % 0.00 in
12:31 61.3 °F 40.9 °F 30.27 in NW 2.0 mph 2.0 mph 47 % 0.00 in
12:41 61.7 °F 40.1 °F 30.27 in WNW 1.2 mph 1.2 mph 45 % 0.00 in
12:46 61.9 °F 39.7 °F 30.27 in NW 1.2 mph 1.2 mph 44 % 0.00 in
12:51 62.0 °F 40.4 °F 30.26 in WNW 2.3 mph 2.3 mph 45 % 0.00 in
12:56 62.0 °F 40.4 °F 30.26 in WNW 4.6 mph 4.6 mph 45 % 0.00 in
13:01 62.0 °F 40.4 °F 30.26 in NW 2.3 mph 2.3 mph 45 % 0.00 in
13:06 62.1 °F 40.5 °F 30.26 in NW 2.3 mph 2.3 mph 45 % 0.00 in
13:12 62.2 °F 40.0 °F 30.26 in NW 1.2 mph 1.2 mph 44 % 0.00 in
13:17 62.3 °F 39.5 °F 30.26 in Calm     43 % 0.00 in
13:22 62.6 °F 39.8 °F 30.26 in NW 1.2 mph 1.2 mph 43 % 0.00 in
13:27 62.7 °F 40.5 °F 30.26 in NW 2.3 mph 2.3 mph 44 % 0.00 in
13:32 62.9 °F 40.6 °F 30.26 in NW 2.3 mph 2.3 mph 44 % 0.00 in
13:37 63.2 °F 40.9 °F 30.25 in Calm     44 % 0.00 in
13:47 63.2 °F 40.3 °F 30.25 in WNW 1.2 mph 1.2 mph 43 % 0.00 in
13:57 63.4 °F 40.5 °F 30.25 in NE 1.2 mph 1.2 mph 43 % 0.00 in
14:02 63.6 °F 40.7 °F 30.25 in Calm   0.1 mph 43 % 0.00 in
14:12 63.7 °F 40.8 °F 30.25 in Calm   0.1 mph 43 % 0.00 in
14:17 64.0 °F 40.4 °F 30.25 in NW 1.2 mph 1.2 mph 42 % 0.00 in
14:22 64.0 °F 39.8 °F 30.25 in NW 2.3 mph 2.3 mph 41 % 0.00 in
14:27 63.8 °F 39.6 °F 30.25 in Calm   0.1 mph 41 % 0.00 in
14:32 63.8 °F 39.6 °F 30.25 in Calm     41 % 0.00 in
14:37 63.9 °F 40.3 °F 30.24 in Calm     42 % 0.00 in
14:42 63.9 °F 40.3 °F 30.24 in Calm     42 % 0.00 in
14:57 63.6 °F 40.7 °F 30.24 in Calm     43 % 0.00 in
15:02 63.5 °F 40.6 °F 30.24 in Calm     43 % 0.00 in
15:07 63.4 °F 40.5 °F 30.24 in Calm     43 % 0.00 in
15:12 63.4 °F 40.5 °F 30.24 in NW 1.2 mph   43 % 0.00 in
15:17 63.3 °F 40.4 °F 30.24 in Calm     43 % 0.00 in
15:22 63.2 °F 40.3 °F 30.24 in WNW 1.2 mph   43 % 0.00 in
15:27 63.1 °F 39.6 °F 30.24 in Calm     42 % 0.00 in
15:32 63.0 °F 40.1 °F 30.24 in Calm     43 % 0.00 in
15:42 62.6 °F 40.4 °F 30.23 in NW 1.2 mph 1.2 mph 44 % 0.00 in
15:47 62.3 °F 40.1 °F 30.23 in NW 1.2 mph 1.2 mph 44 % 0.00 in
15:52 62.1 °F 39.9 °F 30.24 in NW 1.2 mph 1.2 mph 44 % 0.00 in
15:57 61.9 °F 39.7 °F 30.24 in Calm     44 % 0.00 in
16:02 61.7 °F 39.6 °F 30.24 in Calm     44 % 0.00 in
16:07 61.3 °F 39.8 °F 30.23 in Calm     45 % 0.00 in
16:12 60.9 °F 40.0 °F 30.23 in Calm     46 % 0.00 in
16:17 60.4 °F 40.6 °F 30.23 in Calm     48 % 0.00 in
16:18 60.3 °F 40.0 °F 30.23 in Calm     47 % 0.00 in
16:23 59.5 °F 40.8 °F 30.23 in Calm     50 % 0.00 in
16:28 58.7 °F 40.1 °F 30.23 in NW 1.2 mph   50 % 0.00 in
16:33 58.4 °F 41.3 °F 30.24 in Calm     53 % 0.00 in
16:38 57.6 °F 41.5 °F 30.24 in Calm     55 % 0.00 in
16:43 56.3 °F 40.3 °F 30.24 in Calm     55 % 0.00 in
16:48 55.2 °F 40.2 °F 30.23 in Calm     57 % 0.00 in
16:53 54.7 °F 40.6 °F 30.23 in Calm     59 % 0.00 in
16:58 54.6 °F 40.6 °F 30.23 in Calm     59 % 0.00 in
17:03 54.1 °F 40.9 °F 30.23 in Calm     61 % 0.00 in
17:08 53.5 °F 40.8 °F 30.23 in Calm     62 % 0.00 in
17:13 52.5 °F 40.7 °F 30.24 in Calm     64 % 0.00 in
17:18 51.6 °F 40.6 °F 30.23 in Calm     66 % 0.00 in
17:23 51.7 °F 40.3 °F 30.24 in Calm     65 % 0.00 in
17:28 52.1 °F 40.7 °F 30.24 in Calm     65 % 0.00 in
17:33 51.6 °F 40.2 °F 30.24 in Calm     65 % 0.00 in
17:38 50.8 °F 40.2 °F 30.24 in Calm     67 % 0.00 in
17:43 50.0 °F 39.8 °F 30.24 in Calm     68 % 0.00 in
17:48 49.3 °F 39.6 °F 30.24 in Calm     69 % 0.00 in
17:53 48.9 °F 39.9 °F 30.24 in Calm     71 % 0.00 in
17:58 48.6 °F 39.6 °F 30.24 in Calm     71 % 0.00 in
18:03 48.3 °F 39.7 °F 30.24 in Calm     72 % 0.00 in
18:08 48.0 °F 39.8 °F 30.24 in Calm     73 % 0.00 in
18:13 47.8 °F 39.9 °F 30.24 in Calm     74 % 0.00 in
18:19 47.5 °F 39.6 °F 30.25 in Calm     74 % 0.00 in
18:24 47.1 °F 39.9 °F 30.25 in Calm     76 % 0.00 in
18:29 47.1 °F 39.9 °F 30.25 in Calm     76 % 0.00 in
18:34 47.0 °F 39.5 °F 30.25 in Calm     75 % 0.00 in
18:39 46.8 °F 39.3 °F 30.25 in Calm     75 % 0.00 in
18:44 46.6 °F 39.1 °F 30.25 in Calm     75 % 0.00 in
18:49 46.1 °F 39.0 °F 30.25 in Calm     76 % 0.00 in
18:54 45.8 °F 39.0 °F 30.25 in Calm     77 % 0.00 in
18:59 45.6 °F 38.8 °F 30.25 in Calm     77 % 0.00 in
19:04 45.8 °F 39.0 °F 30.25 in Calm     77 % 0.00 in
19:09 45.9 °F 38.8 °F 30.26 in Calm     76 % 0.00 in
19:14 45.5 °F 38.7 °F 30.26 in Calm     77 % 0.00 in
19:19 45.2 °F 38.4 °F 30.26 in Calm     77 % 0.00 in
19:24 45.1 °F 38.3 °F 30.25 in Calm     77 % 0.00 in
19:29 45.0 °F 38.6 °F 30.26 in Calm     78 % 0.00 in
19:34 44.9 °F 38.1 °F 30.26 in Calm     77 % 0.00 in
19:39 44.5 °F 38.1 °F 30.26 in Calm     78 % 0.00 in
19:44 44.2 °F 38.1 °F 30.26 in Calm     79 % 0.00 in
19:49 44.1 °F 38.0 °F 30.26 in Calm     79 % 0.00 in
19:54 44.1 °F 38.0 °F 30.26 in Calm     79 % 0.00 in
19:59 44.2 °F 38.1 °F 30.26 in Calm     79 % 0.00 in
20:04 44.3 °F 38.2 °F 30.26 in Calm     79 % 0.00 in
20:14 44.1 °F 38.0 °F 30.26 in Calm     79 % 0.00 in
20:19 43.7 °F 37.6 °F 30.26 in Calm     79 % 0.00 in
20:24 43.4 °F 37.6 °F 30.26 in Calm     80 % 0.00 in
20:34 43.5 °F 37.7 °F 30.27 in Calm     80 % 0.00 in
20:44 43.4 °F 37.6 °F 30.27 in Calm     80 % 0.00 in
20:49 43.2 °F 37.4 °F 30.27 in Calm     80 % 0.00 in
20:54 43.1 °F 37.3 °F 30.27 in Calm     80 % 0.00 in
20:59 42.8 °F 37.1 °F 30.28 in Calm     80 % 0.00 in
21:04 42.7 °F 37.3 °F 30.28 in Calm     81 % 0.00 in
21:09 42.6 °F 37.2 °F 30.28 in Calm     81 % 0.00 in
21:14 42.5 °F 37.1 °F 30.28 in Calm     81 % 0.00 in
21:19 42.7 °F 37.3 °F 30.28 in Calm     81 % 0.00 in
21:24 42.9 °F 37.2 °F 30.28 in Calm     80 % 0.00 in
21:29 43.1 °F 37.3 °F 30.28 in Calm     80 % 0.00 in
21:34 43.0 °F 37.3 °F 30.29 in Calm     80 % 0.00 in
21:39 42.9 °F 37.2 °F 30.29 in Calm     80 % 0.00 in
21:44 42.7 °F 37.0 °F 30.29 in Calm     80 % 0.00 in
21:49 42.8 °F 37.1 °F 30.29 in Calm     80 % 0.00 in
21:54 43.1 °F 37.0 °F 30.29 in Calm     79 % 0.00 in
21:59 43.1 °F 37.3 °F 30.30 in Calm     80 % 0.00 in
22:04 43.1 °F 37.0 °F 30.30 in Calm     79 % 0.00 in
22:09 43.4 °F 37.3 °F 30.30 in Calm     79 % 0.00 in
22:14 43.6 °F 37.5 °F 30.30 in Calm     79 % 0.00 in
22:19 43.9 °F 37.5 °F 30.30 in East 1.2 mph   78 % 0.00 in
22:24 44.0 °F 37.6 °F 30.30 in Calm     78 % 0.00 in
22:29 43.6 °F 37.2 °F 30.30 in Calm     78 % 0.00 in
22:35 43.2 °F 37.4 °F 30.30 in Calm     80 % 0.00 in
22:40 42.8 °F 37.1 °F 30.30 in Calm     80 % 0.00 in
22:45 42.6 °F 37.2 °F 30.30 in Calm     81 % 0.00 in
22:50 42.4 °F 37.3 °F 30.30 in Calm     82 % 0.00 in
22:55 42.4 °F 37.3 °F 30.30 in NNW 1.2 mph 1.2 mph 82 % 0.00 in
23:00 42.5 °F 37.1 °F 30.31 in NW 1.2 mph 1.2 mph 81 % 0.00 in
23:05 42.5 °F 37.1 °F 30.31 in Calm     81 % 0.00 in
23:10 42.5 °F 36.8 °F 30.30 in Calm     80 % 0.00 in
23:15 42.5 °F 36.8 °F 30.30 in Calm     80 % 0.00 in
23:20 42.4 °F 36.7 °F 30.30 in Calm     80 % 0.00 in
23:25 42.2 °F 36.5 °F 30.30 in Calm     80 % 0.00 in
23:30 42.4 °F 36.3 °F 30.30 in Calm     79 % 0.00 in
23:35 42.6 °F 36.2 °F 30.30 in Calm   0.1 mph 78 % 0.00 in
23:40 42.9 °F 36.2 °F 30.30 in Calm     77 % 0.00 in
23:45 43.0 °F 36.3 °F 30.30 in Calm     77 % 0.00 in
23:50 43.2 °F 36.1 °F 30.30 in Calm     76 % 0.00 in
23:55 43.3 °F 36.2 °F 30.30 in Calm     76 % 0.00 in
Park Place, Exeter, Tulare County, California, USA
Compliments of Weather Underground - 2.5 mb